sensor_id;sensor_type;location;lat;lon;timestamp;pressure;altitude;pressure_sealevel;temperature;humidity
4858;BME280;58975;51.978;8.472;2022-10-19T00:01:47;101554.97;;;5.43;100.00
4858;BME280;58975;51.978;8.472;2022-10-19T00:06:44;101554.19;;;5.41;100.00
4858;BME280;58975;51.978;8.472;2022-10-19T00:11:43;101552.69;;;5.34;100.00
4858;BME280;58975;51.978;8.472;2022-10-19T00:16:40;101561.91;;;5.23;100.00
4858;BME280;58975;51.978;8.472;2022-10-19T00:21:38;101565.16;;;5.30;100.00
4858;BME280;58975;51.978;8.472;2022-10-19T00:26:34;101574.53;;;5.17;100.00
4858;BME280;58975;51.978;8.472;2022-10-19T00:31:31;101563.66;;;5.24;100.00
4858;BME280;58975;51.978;8.472;2022-10-19T00:36:33;101556.63;;;5.23;100.00
4858;BME280;58975;51.978;8.472;2022-10-19T00:41:32;101571.56;;;5.24;100.00
4858;BME280;58975;51.978;8.472;2022-10-19T00:46:30;101567.25;;;5.22;100.00
4858;BME280;58975;51.978;8.472;2022-10-19T00:51:27;101566.84;;;5.33;100.00
4858;BME280;58975;51.978;8.472;2022-10-19T00:56:24;101584.44;;;5.54;100.00
4858;BME280;58975;51.978;8.472;2022-10-19T01:01:22;101586.72;;;5.41;100.00
4858;BME280;58975;51.978;8.472;2022-10-19T01:06:22;101578.28;;;5.33;100.00
4858;BME280;58975;51.978;8.472;2022-10-19T01:11:30;101578.19;;;5.35;100.00
4858;BME280;58975;51.978;8.472;2022-10-19T01:27:14;101575.59;;;5.55;100.00
4858;BME280;58975;51.978;8.472;2022-10-19T01:32:22;101571.88;;;5.60;100.00
4858;BME280;58975;51.978;8.472;2022-10-19T01:43:00;101585.34;;;5.33;100.00
4858;BME280;58975;51.978;8.472;2022-10-19T01:48:12;101589.44;;;5.40;100.00
4858;BME280;58975;51.978;8.472;2022-10-19T01:53:10;101582.69;;;5.33;100.00
4858;BME280;58975;51.978;8.472;2022-10-19T01:58:12;101583.47;;;5.35;100.00
4858;BME280;58975;51.978;8.472;2022-10-19T02:03:10;101583.22;;;5.19;100.00
4858;BME280;58975;51.978;8.472;2022-10-19T02:08:13;101585.38;;;5.31;100.00
4858;BME280;58975;51.978;8.472;2022-10-19T02:13:13;101581.69;;;5.35;100.00
4858;BME280;58975;51.978;8.472;2022-10-19T02:18:13;101576.91;;;5.45;100.00
4858;BME280;58975;51.978;8.472;2022-10-19T02:23:11;101587.22;;;5.51;100.00
4858;BME280;58975;51.978;8.472;2022-10-19T02:28:08;101590.78;;;5.50;100.00
4858;BME280;58975;51.978;8.472;2022-10-19T02:33:05;101575.88;;;5.49;100.00
4858;BME280;58975;51.978;8.472;2022-10-19T02:38:02;101574.78;;;5.53;100.00
4858;BME280;58975;51.978;8.472;2022-10-19T02:43:01;101584.03;;;5.43;100.00
4858;BME280;58975;51.978;8.472;2022-10-19T02:48:03;101585.63;;;5.25;100.00
4858;BME280;58975;51.978;8.472;2022-10-19T02:53:00;101581.56;;;5.16;100.00
4858;BME280;58975;51.978;8.472;2022-10-19T02:57:56;101578.28;;;5.10;100.00
4858;BME280;58975;51.978;8.472;2022-10-19T03:02:53;101572.09;;;5.11;100.00
4858;BME280;58975;51.978;8.472;2022-10-19T03:07:49;101576.91;;;5.23;100.00
4858;BME280;58975;51.978;8.472;2022-10-19T03:12:46;101572.19;;;5.09;100.00
4858;BME280;58975;51.978;8.472;2022-10-19T03:17:42;101578.19;;;5.13;100.00
4858;BME280;58975;51.978;8.472;2022-10-19T03:22:39;101565.22;;;5.07;100.00
4858;BME280;58975;51.978;8.472;2022-10-19T03:27:35;101580.66;;;4.94;100.00
4858;BME280;58975;51.978;8.472;2022-10-19T03:32:32;101571.28;;;4.64;100.00
4858;BME280;58975;51.978;8.472;2022-10-19T03:37:28;101572.84;;;4.69;100.00
4858;BME280;58975;51.978;8.472;2022-10-19T03:42:25;101577.84;;;4.77;100.00
4858;BME280;58975;51.978;8.472;2022-10-19T03:47:21;101573.00;;;4.88;100.00
4858;BME280;58975;51.978;8.472;2022-10-19T03:52:18;101574.94;;;4.83;100.00
4858;BME280;58975;51.978;8.472;2022-10-19T03:57:15;101568.75;;;4.84;100.00
4858;BME280;58975;51.978;8.472;2022-10-19T04:02:11;101572.88;;;4.91;100.00
4858;BME280;58975;51.978;8.472;2022-10-19T04:07:07;101572.69;;;4.96;100.00
4858;BME280;58975;51.978;8.472;2022-10-19T04:12:04;101575.03;;;5.03;100.00
4858;BME280;58975;51.978;8.472;2022-10-19T04:17:01;101583.66;;;5.08;100.00
4858;BME280;58975;51.978;8.472;2022-10-19T04:21:58;101579.59;;;5.21;100.00
4858;BME280;58975;51.978;8.472;2022-10-19T04:26:55;101579.22;;;5.31;100.00
4858;BME280;58975;51.978;8.472;2022-10-19T04:31:52;101590.91;;;5.47;100.00
4858;BME280;58975;51.978;8.472;2022-10-19T04:36:48;101587.72;;;5.60;100.00
4858;BME280;58975;51.978;8.472;2022-10-19T04:41:45;101592.13;;;5.60;100.00
4858;BME280;58975;51.978;8.472;2022-10-19T04:46:41;101590.78;;;5.50;100.00
4858;BME280;58975;51.978;8.472;2022-10-19T04:51:38;101593.59;;;5.45;100.00
4858;BME280;58975;51.978;8.472;2022-10-19T04:56:34;101597.66;;;5.54;100.00
4858;BME280;58975;51.978;8.472;2022-10-19T05:01:30;101593.84;;;5.61;100.00
4858;BME280;58975;51.978;8.472;2022-10-19T05:06:28;101589.53;;;5.80;100.00
4858;BME280;58975;51.978;8.472;2022-10-19T05:11:25;101604.25;;;5.87;100.00
4858;BME280;58975;51.978;8.472;2022-10-19T05:16:22;101595.66;;;5.81;100.00
4858;BME280;58975;51.978;8.472;2022-10-19T05:21:19;101587.06;;;5.97;100.00
4858;BME280;58975;51.978;8.472;2022-10-19T05:26:18;101584.28;;;6.00;100.00
4858;BME280;58975;51.978;8.472;2022-10-19T05:31:19;101563.19;;;5.99;100.00
4858;BME280;58975;51.978;8.472;2022-10-19T05:36:20;101560.03;;;6.11;100.00
4858;BME280;58975;51.978;8.472;2022-10-19T05:41:17;101556.31;;;6.15;100.00
4858;BME280;58975;51.978;8.472;2022-10-19T05:46:15;101567.81;;;6.14;100.00
4858;BME280;58975;51.978;8.472;2022-10-19T05:51:16;101567.44;;;6.03;100.00
4858;BME280;58975;51.978;8.472;2022-10-19T05:56:21;101574.59;;;6.19;100.00
4858;BME280;58975;51.978;8.472;2022-10-19T06:01:18;101576.47;;;6.38;100.00
4858;BME280;58975;51.978;8.472;2022-10-19T06:06:15;101577.63;;;6.51;100.00
4858;BME280;58975;51.978;8.472;2022-10-19T06:11:13;101574.50;;;6.80;100.00
4858;BME280;58975;51.978;8.472;2022-10-19T06:16:12;101585.09;;;6.99;100.00
4858;BME280;58975;51.978;8.472;2022-10-19T06:21:12;101589.09;;;7.07;100.00
4858;BME280;58975;51.978;8.472;2022-10-19T06:26:11;101590.38;;;7.18;100.00
4858;BME280;58975;51.978;8.472;2022-10-19T06:31:08;101603.75;;;7.33;100.00
4858;BME280;58975;51.978;8.472;2022-10-19T06:36:13;101612.78;;;7.48;100.00
4858;BME280;58975;51.978;8.472;2022-10-19T06:41:10;101619.00;;;7.47;100.00
4858;BME280;58975;51.978;8.472;2022-10-19T06:46:09;101622.69;;;7.61;100.00
4858;BME280;58975;51.978;8.472;2022-10-19T06:51:06;101619.59;;;7.71;100.00
4858;BME280;58975;51.978;8.472;2022-10-19T06:56:05;101615.47;;;7.82;100.00
4858;BME280;58975;51.978;8.472;2022-10-19T07:01:02;101628.13;;;7.94;100.00
4858;BME280;58975;51.978;8.472;2022-10-19T07:06:01;101637.22;;;8.07;100.00
4858;BME280;58975;51.978;8.472;2022-10-19T07:10:59;101637.34;;;8.22;100.00
4858;BME280;58975;51.978;8.472;2022-10-19T07:15:57;101635.56;;;8.39;100.00
4858;BME280;58975;51.978;8.472;2022-10-19T07:20:55;101635.78;;;8.52;100.00
4858;BME280;58975;51.978;8.472;2022-10-19T07:25:52;101652.47;;;8.71;100.00
4858;BME280;58975;51.978;8.472;2022-10-19T07:30:50;101638.09;;;8.75;100.00
4858;BME280;58975;51.978;8.472;2022-10-19T07:35:46;101628.25;;;8.77;100.00
4858;BME280;58975;51.978;8.472;2022-10-19T07:40:43;101626.28;;;8.81;100.00
4858;BME280;58975;51.978;8.472;2022-10-19T07:45:42;101606.44;;;9.03;100.00
4858;BME280;58975;51.978;8.472;2022-10-19T07:50:39;101610.28;;;9.14;100.00
4858;BME280;58975;51.978;8.472;2022-10-19T07:55:35;101605.94;;;9.44;100.00
4858;BME280;58975;51.978;8.472;2022-10-19T08:00:31;101596.47;;;9.54;100.00
4858;BME280;58975;51.978;8.472;2022-10-19T08:05:28;101591.41;;;9.65;100.00
4858;BME280;58975;51.978;8.472;2022-10-19T08:10:27;101593.94;;;9.82;100.00
4858;BME280;58975;51.978;8.472;2022-10-19T08:15:23;101582.41;;;9.97;100.00
4858;BME280;58975;51.978;8.472;2022-10-19T08:20:21;101568.59;;;10.21;100.00
4858;BME280;58975;51.978;8.472;2022-10-19T08:25:17;101567.50;;;10.53;100.00
4858;BME280;58975;51.978;8.472;2022-10-19T08:30:14;101559.88;;;10.75;100.00
4858;BME280;58975;51.978;8.472;2022-10-19T08:35:10;101554.72;;;11.01;100.00
4858;BME280;58975;51.978;8.472;2022-10-19T08:40:16;101546.66;;;11.15;100.00
4858;BME280;58975;51.978;8.472;2022-10-19T08:45:24;101528.22;;;11.38;100.00
4858;BME280;58975;51.978;8.472;2022-10-19T08:50:28;101538.66;;;11.42;100.00
4858;BME280;58975;51.978;8.472;2022-10-19T08:55:42;101536.97;;;11.41;100.00
4858;BME280;58975;51.978;8.472;2022-10-19T09:00:49;101537.97;;;11.52;100.00
4858;BME280;58975;51.978;8.472;2022-10-19T09:10:53;101541.00;;;12.12;100.00
4858;BME280;58975;51.978;8.472;2022-10-19T09:15:51;101556.59;;;12.44;100.00
4858;BME280;58975;51.978;8.472;2022-10-19T09:20:50;101545.28;;;12.53;100.00
4858;BME280;58975;51.978;8.472;2022-10-19T09:25:49;101555.84;;;12.79;100.00
4858;BME280;58975;51.978;8.472;2022-10-19T09:30:47;101558.97;;;12.73;100.00
4858;BME280;58975;51.978;8.472;2022-10-19T09:35:46;101544.00;;;12.58;100.00
4858;BME280;58975;51.978;8.472;2022-10-19T09:40:43;101562.59;;;12.22;100.00
4858;BME280;58975;51.978;8.472;2022-10-19T09:45:50;101566.84;;;12.12;100.00
4858;BME280;58975;51.978;8.472;2022-10-19T09:50:50;101561.50;;;12.12;100.00
4858;BME280;58975;51.978;8.472;2022-10-19T09:56:07;101555.41;;;12.86;100.00
4858;BME280;58975;51.978;8.472;2022-10-19T10:01:35;101564.34;;;13.10;100.00
4858;BME280;58975;51.978;8.472;2022-10-19T10:06:39;101566.22;;;12.71;100.00
4858;BME280;58975;51.978;8.472;2022-10-19T10:11:37;101564.72;;;12.80;100.00
4858;BME280;58975;51.978;8.472;2022-10-19T10:16:34;101565.41;;;12.95;100.00
4858;BME280;58975;51.978;8.472;2022-10-19T10:21:33;101569.59;;;12.86;100.00
4858;BME280;58975;51.978;8.472;2022-10-19T10:26:44;101579.25;;;12.89;100.00
4858;BME280;58975;51.978;8.472;2022-10-19T10:31:41;101576.56;;;12.89;100.00
4858;BME280;58975;51.978;8.472;2022-10-19T10:36:38;101567.06;;;12.85;100.00
4858;BME280;58975;51.978;8.472;2022-10-19T10:41:38;101555.72;;;13.30;100.00
4858;BME280;58975;51.978;8.472;2022-10-19T10:46:41;101548.88;;;13.73;100.00
4858;BME280;58975;51.978;8.472;2022-10-19T10:51:42;101537.25;;;13.86;100.00
4858;BME280;58975;51.978;8.472;2022-10-19T11:02:15;101525.50;;;13.04;100.00
4858;BME280;58975;51.978;8.472;2022-10-19T11:07:22;101522.50;;;12.72;100.00
4858;BME280;58975;51.978;8.472;2022-10-19T11:12:38;101508.91;;;12.63;100.00
4858;BME280;58975;51.978;8.472;2022-10-19T11:17:39;101501.19;;;12.84;100.00
4858;BME280;58975;51.978;8.472;2022-10-19T11:22:43;101492.72;;;13.26;100.00
4858;BME280;58975;51.978;8.472;2022-10-19T11:33:42;101492.16;;;13.68;100.00
4858;BME280;58975;51.978;8.472;2022-10-19T12:00:21;101453.63;;;13.36;100.00
4858;BME280;58975;51.978;8.472;2022-10-19T12:10:55;101443.69;;;13.60;100.00
4858;BME280;58975;51.978;8.472;2022-10-19T12:15:55;101435.09;;;13.68;100.00
4858;BME280;58975;51.978;8.472;2022-10-19T12:20:56;101432.53;;;13.66;100.00
4858;BME280;58975;51.978;8.472;2022-10-19T12:25:55;101429.09;;;13.64;100.00
4858;BME280;58975;51.978;8.472;2022-10-19T12:30:52;101425.72;;;13.62;100.00
4858;BME280;58975;51.978;8.472;2022-10-19T12:36:09;101410.19;;;13.79;100.00
4858;BME280;58975;51.978;8.472;2022-10-19T12:46:42;101400.22;;;13.35;100.00
4858;BME280;58975;51.978;8.472;2022-10-19T12:51:46;101396.31;;;13.27;100.00
4858;BME280;58975;51.978;8.472;2022-10-19T12:56:47;101389.28;;;13.38;100.00
4858;BME280;58975;51.978;8.472;2022-10-19T13:01:45;101370.44;;;13.39;100.00
4858;BME280;58975;51.978;8.472;2022-10-19T13:06:43;101361.91;;;13.45;100.00
4858;BME280;58975;51.978;8.472;2022-10-19T13:22:35;101333.34;;;13.57;100.00
4858;BME280;58975;51.978;8.472;2022-10-19T13:27:37;101336.63;;;13.60;100.00
4858;BME280;58975;51.978;8.472;2022-10-19T13:32:42;101339.84;;;13.88;100.00
4858;BME280;58975;51.978;8.472;2022-10-19T13:37:39;101341.16;;;13.71;100.00
4858;BME280;58975;51.978;8.472;2022-10-19T13:42:35;101335.22;;;13.56;100.00
4858;BME280;58975;51.978;8.472;2022-10-19T13:47:38;101343.84;;;13.71;100.00
4858;BME280;58975;51.978;8.472;2022-10-19T13:52:49;101333.75;;;13.63;100.00
4858;BME280;58975;51.978;8.472;2022-10-19T13:58:06;101320.63;;;13.83;100.00
4858;BME280;58975;51.978;8.472;2022-10-19T14:19:12;101299.88;;;13.29;100.00
4858;BME280;58975;51.978;8.472;2022-10-19T14:24:20;101288.94;;;13.32;100.00
4858;BME280;58975;51.978;8.472;2022-10-19T14:29:16;101282.22;;;13.15;100.00
4858;BME280;58975;51.978;8.472;2022-10-19T14:34:13;101269.41;;;13.08;100.00
4858;BME280;58975;51.978;8.472;2022-10-19T14:39:30;101277.97;;;13.13;100.00
4858;BME280;58975;51.978;8.472;2022-10-19T14:44:34;101275.91;;;13.16;100.00
4858;BME280;58975;51.978;8.472;2022-10-19T14:49:32;101260.16;;;13.01;100.00
4858;BME280;58975;51.978;8.472;2022-10-19T14:54:36;101256.63;;;12.89;100.00
4858;BME280;58975;51.978;8.472;2022-10-19T14:59:43;101259.97;;;12.80;100.00
4858;BME280;58975;51.978;8.472;2022-10-19T15:04:41;101254.59;;;12.69;100.00
4858;BME280;58975;51.978;8.472;2022-10-19T15:09:46;101259.00;;;12.46;100.00
4858;BME280;58975;51.978;8.472;2022-10-19T15:14:45;101253.25;;;12.16;100.00
4858;BME280;58975;51.978;8.472;2022-10-19T15:19:42;101255.25;;;11.89;100.00
4858;BME280;58975;51.978;8.472;2022-10-19T15:24:52;101242.31;;;11.71;100.00
4858;BME280;58975;51.978;8.472;2022-10-19T15:29:55;101236.50;;;11.65;100.00
4858;BME280;58975;51.978;8.472;2022-10-19T15:34:52;101236.97;;;11.46;100.00
4858;BME280;58975;51.978;8.472;2022-10-19T15:39:50;101228.66;;;11.25;100.00
4858;BME280;58975;51.978;8.472;2022-10-19T15:44:47;101218.66;;;11.04;100.00
4858;BME280;58975;51.978;8.472;2022-10-19T15:54:40;101222.66;;;10.71;100.00
4858;BME280;58975;51.978;8.472;2022-10-19T15:59:38;101215.41;;;10.61;100.00
4858;BME280;58975;51.978;8.472;2022-10-19T16:04:34;101213.44;;;10.37;100.00
4858;BME280;58975;51.978;8.472;2022-10-19T16:09:30;101218.16;;;10.20;100.00
4858;BME280;58975;51.978;8.472;2022-10-19T16:14:27;101202.88;;;10.09;100.00
4858;BME280;58975;51.978;8.472;2022-10-19T16:19:30;101207.78;;;9.88;100.00
4858;BME280;58975;51.978;8.472;2022-10-19T16:24:27;101203.94;;;9.66;100.00
4858;BME280;58975;51.978;8.472;2022-10-19T16:29:23;101203.41;;;9.46;100.00
4858;BME280;58975;51.978;8.472;2022-10-19T16:34:24;101200.41;;;9.24;100.00
4858;BME280;58975;51.978;8.472;2022-10-19T16:39:20;101206.94;;;9.05;100.00
4858;BME280;58975;51.978;8.472;2022-10-19T16:44:17;101204.84;;;8.95;100.00
4858;BME280;58975;51.978;8.472;2022-10-19T16:49:13;101207.50;;;8.81;100.00
4858;BME280;58975;51.978;8.472;2022-10-19T16:54:10;101200.81;;;8.74;100.00
4858;BME280;58975;51.978;8.472;2022-10-19T16:59:10;101200.63;;;8.63;100.00
4858;BME280;58975;51.978;8.472;2022-10-19T17:04:07;101191.22;;;8.58;100.00
4858;BME280;58975;51.978;8.472;2022-10-19T17:09:04;101177.91;;;8.43;100.00
4858;BME280;58975;51.978;8.472;2022-10-19T17:14:20;101188.03;;;8.37;100.00
4858;BME280;58975;51.978;8.472;2022-10-19T17:19:17;101178.28;;;8.37;100.00
4858;BME280;58975;51.978;8.472;2022-10-19T17:24:15;101175.56;;;8.23;100.00
4858;BME280;58975;51.978;8.472;2022-10-19T17:29:18;101169.94;;;8.14;100.00
4858;BME280;58975;51.978;8.472;2022-10-19T17:34:15;101172.66;;;8.12;100.00
4858;BME280;58975;51.978;8.472;2022-10-19T17:39:20;101159.84;;;8.04;100.00
4858;BME280;58975;51.978;8.472;2022-10-19T17:44:25;101152.66;;;8.06;100.00
4858;BME280;58975;51.978;8.472;2022-10-19T17:49:21;101156.25;;;8.05;100.00
4858;BME280;58975;51.978;8.472;2022-10-19T17:54:17;101150.56;;;8.12;100.00
4858;BME280;58975;51.978;8.472;2022-10-19T17:59:14;101144.59;;;8.08;100.00
4858;BME280;58975;51.978;8.472;2022-10-19T18:04:10;101149.03;;;8.23;100.00
4858;BME280;58975;51.978;8.472;2022-10-19T18:09:08;101144.94;;;8.18;100.00
4858;BME280;58975;51.978;8.472;2022-10-19T18:14:06;101145.38;;;8.40;100.00
4858;BME280;58975;51.978;8.472;2022-10-19T18:19:03;101139.69;;;8.32;100.00
4858;BME280;58975;51.978;8.472;2022-10-19T18:24:01;101133.63;;;8.30;100.00
4858;BME280;58975;51.978;8.472;2022-10-19T18:29:00;101120.09;;;8.19;100.00
4858;BME280;58975;51.978;8.472;2022-10-19T18:33:59;101113.69;;;8.23;100.00
4858;BME280;58975;51.978;8.472;2022-10-19T18:39:00;101096.91;;;8.22;100.00
4858;BME280;58975;51.978;8.472;2022-10-19T18:44:02;101100.09;;;8.27;100.00
4858;BME280;58975;51.978;8.472;2022-10-19T18:49:01;101097.47;;;8.27;100.00
4858;BME280;58975;51.978;8.472;2022-10-19T18:53:58;101090.72;;;8.22;100.00
4858;BME280;58975;51.978;8.472;2022-10-19T18:58:55;101084.31;;;8.26;100.00
4858;BME280;58975;51.978;8.472;2022-10-19T19:03:54;101089.59;;;8.26;100.00
4858;BME280;58975;51.978;8.472;2022-10-19T19:08:58;101083.94;;;8.32;100.00
4858;BME280;58975;51.978;8.472;2022-10-19T19:13:57;101081.50;;;8.29;100.00
4858;BME280;58975;51.978;8.472;2022-10-19T19:18:54;101079.53;;;8.17;100.00
4858;BME280;58975;51.978;8.472;2022-10-19T19:23:52;101078.94;;;8.12;100.00
4858;BME280;58975;51.978;8.472;2022-10-19T19:28:49;101062.28;;;8.09;100.00
4858;BME280;58975;51.978;8.472;2022-10-19T19:33:47;101066.91;;;8.06;100.00
4858;BME280;58975;51.978;8.472;2022-10-19T19:38:44;101067.38;;;7.98;100.00
4858;BME280;58975;51.978;8.472;2022-10-19T19:43:41;101062.78;;;7.86;100.00
4858;BME280;58975;51.978;8.472;2022-10-19T19:48:39;101063.88;;;7.68;100.00
4858;BME280;58975;51.978;8.472;2022-10-19T19:53:36;101059.78;;;7.63;100.00
4858;BME280;58975;51.978;8.472;2022-10-19T19:58:33;101063.31;;;7.47;100.00
4858;BME280;58975;51.978;8.472;2022-10-19T20:03:29;101064.31;;;7.45;100.00
4858;BME280;58975;51.978;8.472;2022-10-19T20:08:25;101056.66;;;7.25;100.00
4858;BME280;58975;51.978;8.472;2022-10-19T20:13:22;101051.44;;;7.07;100.00
4858;BME280;58975;51.978;8.472;2022-10-19T20:18:18;101058.97;;;6.99;100.00
4858;BME280;58975;51.978;8.472;2022-10-19T20:23:15;101061.00;;;6.94;100.00
4858;BME280;58975;51.978;8.472;2022-10-19T20:28:11;101060.41;;;6.89;100.00
4858;BME280;58975;51.978;8.472;2022-10-19T20:33:07;101043.84;;;6.70;100.00
4858;BME280;58975;51.978;8.472;2022-10-19T20:38:04;101041.06;;;6.56;100.00
4858;BME280;58975;51.978;8.472;2022-10-19T20:43:00;101029.84;;;6.51;100.00
4858;BME280;58975;51.978;8.472;2022-10-19T20:47:56;101020.56;;;6.59;100.00
4858;BME280;58975;51.978;8.472;2022-10-19T20:52:53;101001.19;;;6.59;100.00
4858;BME280;58975;51.978;8.472;2022-10-19T20:57:49;100987.03;;;6.60;100.00
4858;BME280;58975;51.978;8.472;2022-10-19T21:02:46;100984.63;;;6.71;100.00
4858;BME280;58975;51.978;8.472;2022-10-19T21:07:42;100986.97;;;6.77;100.00
4858;BME280;58975;51.978;8.472;2022-10-19T21:12:38;100983.97;;;6.68;100.00
4858;BME280;58975;51.978;8.472;2022-10-19T21:17:35;100983.97;;;6.68;100.00
4858;BME280;58975;51.978;8.472;2022-10-19T21:22:31;100966.47;;;6.65;100.00
4858;BME280;58975;51.978;8.472;2022-10-19T21:27:34;100975.69;;;6.58;100.00
4858;BME280;58975;51.978;8.472;2022-10-19T21:32:31;100990.03;;;6.54;100.00
4858;BME280;58975;51.978;8.472;2022-10-19T21:37:28;100974.47;;;6.48;100.00
4858;BME280;58975;51.978;8.472;2022-10-19T21:42:24;100981.03;;;6.41;100.00
4858;BME280;58975;51.978;8.472;2022-10-19T21:47:20;100975.13;;;6.36;100.00
4858;BME280;58975;51.978;8.472;2022-10-19T21:52:17;100976.81;;;6.21;100.00
4858;BME280;58975;51.978;8.472;2022-10-19T21:57:13;100963.97;;;6.31;100.00
4858;BME280;58975;51.978;8.472;2022-10-19T22:02:10;100963.66;;;6.19;100.00
4858;BME280;58975;51.978;8.472;2022-10-19T22:07:07;100964.19;;;6.26;100.00
4858;BME280;58975;51.978;8.472;2022-10-19T22:12:04;100957.53;;;6.19;100.00
4858;BME280;58975;51.978;8.472;2022-10-19T22:17:00;100939.75;;;6.05;100.00
4858;BME280;58975;51.978;8.472;2022-10-19T22:21:56;100947.19;;;6.14;100.00
4858;BME280;58975;51.978;8.472;2022-10-19T22:26:53;100929.34;;;6.02;100.00
4858;BME280;58975;51.978;8.472;2022-10-19T22:31:49;100916.47;;;6.12;100.00
4858;BME280;58975;51.978;8.472;2022-10-19T22:36:46;100910.25;;;6.13;100.00
4858;BME280;58975;51.978;8.472;2022-10-19T22:41:42;100905.66;;;6.16;100.00
4858;BME280;58975;51.978;8.472;2022-10-19T22:46:39;100890.56;;;6.18;100.00
4858;BME280;58975;51.978;8.472;2022-10-19T22:51:35;100894.81;;;6.21;100.00
4858;BME280;58975;51.978;8.472;2022-10-19T22:56:31;100889.28;;;6.26;100.00
4858;BME280;58975;51.978;8.472;2022-10-19T23:01:28;100885.53;;;6.30;100.00
4858;BME280;58975;51.978;8.472;2022-10-19T23:06:25;100876.66;;;6.31;100.00
4858;BME280;58975;51.978;8.472;2022-10-19T23:11:22;100883.31;;;6.38;100.00
4858;BME280;58975;51.978;8.472;2022-10-19T23:16:18;100882.72;;;6.33;100.00
4858;BME280;58975;51.978;8.472;2022-10-19T23:21:14;100875.28;;;6.24;100.00
4858;BME280;58975;51.978;8.472;2022-10-19T23:26:13;100882.47;;;6.22;100.00
4858;BME280;58975;51.978;8.472;2022-10-19T23:31:21;100872.06;;;6.18;100.00
4858;BME280;58975;51.978;8.472;2022-10-19T23:36:24;100859.94;;;6.14;100.00
4858;BME280;58975;51.978;8.472;2022-10-19T23:41:21;100862.47;;;6.16;100.00
4858;BME280;58975;51.978;8.472;2022-10-19T23:46:17;100853.78;;;6.14;100.00
4858;BME280;58975;51.978;8.472;2022-10-19T23:51:16;100854.47;;;6.02;100.00
4858;BME280;58975;51.978;8.472;2022-10-19T23:56:20;100843.47;;;6.09;100.00
